createdAt,value
2023-02-03T00:00:50.861Z,77.07
2023-02-03T00:03:17.623Z,77.38
2023-02-03T00:05:47.434Z,77.42
2023-02-03T00:08:15.279Z,77.93
2023-02-03T00:10:42.106Z,78.38
2023-02-03T00:13:09.339Z,78.84
2023-02-03T00:15:35.960Z,79.21
2023-02-03T00:18:02.590Z,80.04
2023-02-03T00:20:29.437Z,79.86
2023-02-03T00:23:06.328Z,80.34
2023-02-03T00:25:33.433Z,81.04
2023-02-03T00:28:00.163Z,81.63
2023-02-03T00:30:27.333Z,81.88
2023-02-03T00:32:54.266Z,82.10
2023-02-03T00:35:21.063Z,81.98
2023-02-03T00:37:52.409Z,81.46
2023-02-03T00:40:20.039Z,82.17
2023-02-03T00:42:46.882Z,82.31
2023-02-03T00:45:13.562Z,82.80
2023-02-03T00:47:40.225Z,82.58
2023-02-03T00:50:07.679Z,82.75
2023-02-03T00:52:34.933Z,82.74
2023-02-03T00:55:02.209Z,83.09
2023-02-03T00:57:28.847Z,83.52
2023-02-03T00:59:56.026Z,82.80
2023-02-03T01:02:22.765Z,83.43
2023-02-03T01:04:49.508Z,82.93
2023-02-03T01:07:16.259Z,84.14
2023-02-03T01:09:42.930Z,84.21
2023-02-03T01:12:10.743Z,84.26
2023-02-03T01:14:37.397Z,84.29
2023-02-03T01:17:04.561Z,84.42
2023-02-03T01:19:31.242Z,84.20
2023-02-03T01:21:58.569Z,84.36
2023-02-03T01:24:25.223Z,84.41
2023-02-03T01:26:51.858Z,84.48
2023-02-03T01:29:18.530Z,84.83
2023-02-03T01:31:45.211Z,85.07
2023-02-03T01:34:13.846Z,85.23
2023-02-03T01:36:40.605Z,85.77
2023-02-03T01:39:07.347Z,84.80
2023-02-03T01:41:37.506Z,84.44
2023-02-03T01:44:38.947Z,85.43
2023-02-03T01:47:16.452Z,85.48
2023-02-03T01:49:47.594Z,85.49
2023-02-03T01:52:14.341Z,85.07
2023-02-03T01:54:44.770Z,85.07
2023-02-03T01:57:20.852Z,85.85
2023-02-03T01:59:48.198Z,85.66
2023-02-03T02:02:15.023Z,86.06
2023-02-03T02:05:04.013Z,85.37
2023-02-03T02:07:31.924Z,85.42
2023-02-03T02:09:58.721Z,84.49
2023-02-03T02:12:25.332Z,85.38
2023-02-03T02:14:52.058Z,84.40
2023-02-03T02:17:34.763Z,85.02
2023-02-03T02:20:28.111Z,85.74
2023-02-03T02:23:14.119Z,85.27
2023-02-03T02:26:02.138Z,85.56
2023-02-03T02:28:42.495Z,84.17
2023-02-03T02:31:31.250Z,84.86
2023-02-03T02:34:07.995Z,85.57
2023-02-03T02:37:05.200Z,85.61
2023-02-03T02:39:43.835Z,85.06
2023-02-03T02:42:32.656Z,85.86
2023-02-03T02:45:07.214Z,86.35
2023-02-03T02:47:36.930Z,85.99
2023-02-03T02:50:16.660Z,86.05
2023-02-03T02:52:44.979Z,85.76
2023-02-03T02:55:17.691Z,86.98
2023-02-03T02:57:48.424Z,87.84
2023-02-03T03:00:18.222Z,87.84
2023-02-03T03:02:54.403Z,86.70
2023-02-03T03:05:22.292Z,87.52
2023-02-03T03:07:56.420Z,87.30
2023-02-03T03:10:27.842Z,87.67
2023-02-03T03:12:58.306Z,87.05
2023-02-03T03:15:27.686Z,87.89
2023-02-03T03:18:03.670Z,87.65
2023-02-03T03:20:31.156Z,87.43
2023-02-03T03:23:07.051Z,87.90
2023-02-03T03:25:43.986Z,88.24
2023-02-03T03:28:16.348Z,88.00
2023-02-03T03:30:43.781Z,88.00
2023-02-03T03:33:10.662Z,88.66
2023-02-03T03:36:00.500Z,88.71
2023-02-03T03:38:40.318Z,89.33
2023-02-03T03:41:26.899Z,88.52
2023-02-03T03:43:57.026Z,88.48
2023-02-03T03:46:29.889Z,88.39
2023-02-03T03:49:00.212Z,87.76
2023-02-03T03:51:31.326Z,87.63
2023-02-03T03:54:02.279Z,88.30
2023-02-03T03:56:32.520Z,88.99
2023-02-03T03:59:00.190Z,88.69
2023-02-03T04:01:27.774Z,88.88
2023-02-03T04:04:00.641Z,89.23
2023-02-03T04:06:27.317Z,89.26
2023-02-03T04:08:54.035Z,89.10
2023-02-03T04:11:39.257Z,88.48
2023-02-03T04:14:05.890Z,88.91
2023-02-03T04:16:32.556Z,89.33
2023-02-03T04:18:59.285Z,89.21
2023-02-03T04:21:26.023Z,88.88
2023-02-03T04:23:52.682Z,88.90
2023-02-03T04:26:19.392Z,88.93
2023-02-03T04:28:46.141Z,89.46
2023-02-03T04:31:12.961Z,89.30
2023-02-03T04:33:42.683Z,89.18
2023-02-03T04:36:09.704Z,89.16
2023-02-03T04:38:36.385Z,89.28
2023-02-03T04:41:03.118Z,89.79
2023-02-03T04:43:29.861Z,90.08
2023-02-03T04:45:56.588Z,90.49
2023-02-03T04:48:23.256Z,90.99
2023-02-03T04:50:49.912Z,91.20
2023-02-03T04:53:16.572Z,91.18
2023-02-03T04:55:46.907Z,91.39
2023-02-03T04:58:13.632Z,91.56
2023-02-03T05:00:40.515Z,91.41
2023-02-03T05:03:07.297Z,91.79
2023-02-03T05:05:33.990Z,92.20
2023-02-03T05:08:00.597Z,92.57
2023-02-03T05:10:27.418Z,92.69
2023-02-03T05:12:54.174Z,92.63
2023-02-03T05:15:20.857Z,92.34
2023-02-03T05:17:47.484Z,92.11
2023-02-03T05:20:14.157Z,92.66
2023-02-03T05:22:46.835Z,92.78
2023-02-03T05:25:13.570Z,92.74
2023-02-03T05:27:41.039Z,93.38
2023-02-03T05:30:09.281Z,93.49
2023-02-03T05:32:35.998Z,93.77
2023-02-03T05:35:02.655Z,93.78
2023-02-03T05:37:32.327Z,94.06
2023-02-03T05:40:18.909Z,93.64
2023-02-03T05:42:49.121Z,93.53
2023-02-03T05:45:16.760Z,93.83
2023-02-03T05:47:43.403Z,93.50
2023-02-03T05:50:10.091Z,93.28
2023-02-03T05:52:36.729Z,92.98
2023-02-03T05:55:03.504Z,93.20
2023-02-03T05:57:32.198Z,93.32
2023-02-03T05:59:59.060Z,93.38
2023-02-03T06:02:25.738Z,93.43
2023-02-03T06:04:52.448Z,93.75
2023-02-03T06:07:19.131Z,93.33
2023-02-03T06:09:45.819Z,93.22
2023-02-03T06:12:12.458Z,93.34
2023-02-03T06:14:39.106Z,93.73
2023-02-03T06:17:05.818Z,93.07
2023-02-03T06:19:32.439Z,93.39
2023-02-03T06:21:59.079Z,92.91
2023-02-03T06:24:25.714Z,92.53
2023-02-03T06:26:52.381Z,94.11
2023-02-03T06:29:19.062Z,94.24
2023-02-03T06:31:45.770Z,93.39
2023-02-03T06:34:12.439Z,92.89
2023-02-03T06:36:39.114Z,92.84
2023-02-03T06:39:05.733Z,92.77
2023-02-03T06:41:33.416Z,93.01
2023-02-03T06:44:00.121Z,93.75
2023-02-03T06:46:30.288Z,94.38
2023-02-03T06:48:57.076Z,93.78
2023-02-03T06:51:24.963Z,93.73
2023-02-03T06:53:51.794Z,93.96
2023-02-03T06:56:18.456Z,93.70
2023-02-03T06:58:45.192Z,92.67
2023-02-03T07:01:11.881Z,92.92
2023-02-03T07:03:38.548Z,92.95
2023-02-03T07:06:05.486Z,92.74
2023-02-03T07:08:32.161Z,93.65
2023-02-03T07:10:58.947Z,93.84
2023-02-03T07:13:25.623Z,93.53
2023-02-03T07:15:53.304Z,93.53
2023-02-03T07:18:45.612Z,93.47
2023-02-03T07:21:11.522Z,92.97
2023-02-03T07:23:38.153Z,93.48
2023-02-03T07:26:06.229Z,93.47
2023-02-03T07:28:35.938Z,93.26
2023-02-03T07:31:04.852Z,93.01
2023-02-03T07:33:31.919Z,93.43
2023-02-03T07:36:00.130Z,93.41
2023-02-03T07:38:27.972Z,93.63
2023-02-03T07:40:57.822Z,93.68
2023-02-03T07:43:24.604Z,93.77
2023-02-03T07:45:51.290Z,94.82
2023-02-03T07:48:17.955Z,93.46
2023-02-03T07:50:46.030Z,93.43
2023-02-03T07:53:12.816Z,93.56
2023-02-03T07:55:40.242Z,92.35
2023-02-03T07:58:07.156Z,93.47
2023-02-03T08:00:33.825Z,93.43
2023-02-03T08:03:00.588Z,94.10
2023-02-03T08:05:27.233Z,93.26
2023-02-03T08:07:53.991Z,93.96
2023-02-03T08:10:23.750Z,93.82
2023-02-03T08:12:53.939Z,93.90
2023-02-03T08:15:20.726Z,93.46
2023-02-03T08:17:49.293Z,92.95
2023-02-03T08:20:17.413Z,93.07
2023-02-03T08:22:44.080Z,92.74
2023-02-03T08:25:11.226Z,93.19
2023-02-03T08:27:37.957Z,93.33
2023-02-03T08:30:05.559Z,93.54
2023-02-03T08:32:32.996Z,93.09
2023-02-03T08:34:59.662Z,93.55
2023-02-03T08:37:26.364Z,94.25
2023-02-03T08:39:53.001Z,94.42
2023-02-03T08:42:22.680Z,93.57
2023-02-03T08:44:49.449Z,93.93
2023-02-03T08:47:16.526Z,94.26
2023-02-03T08:49:43.213Z,93.89
2023-02-03T08:52:11.811Z,93.52
2023-02-03T08:54:39.185Z,92.19
2023-02-03T08:57:05.947Z,93.63
2023-02-03T08:59:36.171Z,93.52
2023-02-03T09:02:04.645Z,93.40
2023-02-03T09:04:33.519Z,92.91
2023-02-03T09:07:02.515Z,92.82
2023-02-03T09:09:29.251Z,93.49
2023-02-03T09:12:02.017Z,93.87
2023-02-03T09:14:29.890Z,94.73
2023-02-03T09:16:56.669Z,93.75
2023-02-03T09:19:23.334Z,93.46
2023-02-03T09:21:50.019Z,94.29
2023-02-03T09:24:18.043Z,95.17
2023-02-03T09:26:45.389Z,94.68
2023-02-03T09:29:12.427Z,94.87
2023-02-03T09:31:39.446Z,94.11
2023-02-03T09:34:06.134Z,94.56
2023-02-03T09:36:33.289Z,94.20
2023-02-03T09:39:00.207Z,93.30
2023-02-03T09:41:30.057Z,94.28
2023-02-03T09:44:00.211Z,94.27
2023-02-03T09:46:34.273Z,94.09
2023-02-03T09:49:14.919Z,94.77
2023-02-03T09:51:49.532Z,94.25
2023-02-03T09:54:20.283Z,94.40
2023-02-03T09:56:52.496Z,94.39
2023-02-03T09:59:19.607Z,95.29
2023-02-03T10:01:55.920Z,95.88
2023-02-03T10:04:32.720Z,95.17
2023-02-03T10:07:29.355Z,95.83
2023-02-03T10:10:41.619Z,95.53
2023-02-03T10:13:29.820Z,95.74
2023-02-03T10:16:02.943Z,96.14
2023-02-03T10:18:40.385Z,97.45
2023-02-03T10:21:16.484Z,95.36
2023-02-03T10:23:44.160Z,94.64
2023-02-03T10:26:16.924Z,95.55
2023-02-03T10:28:56.833Z,94.10
2023-02-03T10:31:27.693Z,93.53
2023-02-03T10:34:09.581Z,94.08
2023-02-03T10:37:02.930Z,94.93
2023-02-03T10:39:42.024Z,95.10
2023-02-03T10:42:09.230Z,94.96
2023-02-03T10:44:39.557Z,94.03
2023-02-03T10:47:25.934Z,95.18
2023-02-03T10:49:53.875Z,95.60
2023-02-03T10:52:31.818Z,93.53
2023-02-03T10:54:59.600Z,93.48
2023-02-03T10:57:28.543Z,94.21
2023-02-03T11:00:06.738Z,93.16
2023-02-03T11:02:33.550Z,93.42
2023-02-03T11:05:22.399Z,92.76
2023-02-03T11:07:49.120Z,91.38
2023-02-03T11:10:29.351Z,90.34
2023-02-03T11:13:21.966Z,86.23
2023-02-03T11:16:04.145Z,86.97
2023-02-03T11:18:33.707Z,84.52
2023-02-03T11:21:00.602Z,84.10
2023-02-03T11:23:27.279Z,85.20
2023-02-03T11:25:54.012Z,84.30
2023-02-03T11:28:22.430Z,86.10
2023-02-03T11:30:56.333Z,84.72
2023-02-03T11:33:26.163Z,82.60
2023-02-03T11:35:59.583Z,82.70
2023-02-03T11:38:36.783Z,83.67
2023-02-03T11:41:03.569Z,82.96
2023-02-03T11:43:30.576Z,83.80
2023-02-03T11:46:04.114Z,82.61
2023-02-03T11:48:51.723Z,83.48
2023-02-03T11:51:30.923Z,82.92
2023-02-03T11:54:17.064Z,80.68
2023-02-03T11:57:06.730Z,79.99
2023-02-03T11:59:36.315Z,79.36
2023-02-03T12:02:13.580Z,79.45
2023-02-03T12:05:04.697Z,77.41
2023-02-03T12:07:41.363Z,79.01
2023-02-03T12:10:08.071Z,79.30
2023-02-03T12:13:02.149Z,76.87
2023-02-03T12:15:56.425Z,76.25
2023-02-03T12:18:43.968Z,75.69
2023-02-03T12:21:28.321Z,76.95
2023-02-03T12:24:24.595Z,75.09
2023-02-03T12:27:01.744Z,73.92
2023-02-03T12:29:32.910Z,74.72
2023-02-03T12:32:07.407Z,73.79
2023-02-03T12:35:00.109Z,72.29
2023-02-03T12:37:43.771Z,72.20
2023-02-03T12:40:21.888Z,69.97
2023-02-03T12:42:54.829Z,70.84
2023-02-03T12:45:32.921Z,69.44
2023-02-03T12:48:10.840Z,69.38
2023-02-03T12:50:46.035Z,68.38
2023-02-03T12:53:32.238Z,68.88
2023-02-03T12:56:06.012Z,66.90
2023-02-03T12:58:56.188Z,67.45
2023-02-03T13:01:24.931Z,67.78
2023-02-03T13:04:11.215Z,65.40
2023-02-03T13:06:56.288Z,73.77
2023-02-03T13:09:38.856Z,77.43
2023-02-03T13:12:10.753Z,78.47
2023-02-03T13:14:42.962Z,76.72
2023-02-03T13:17:29.372Z,79.22
2023-02-03T13:19:59.105Z,81.79
2023-02-03T13:22:25.784Z,83.93
2023-02-03T13:25:21.643Z,84.86
2023-02-03T13:28:12.538Z,85.38
2023-02-03T13:30:42.555Z,83.74
2023-02-03T13:33:28.490Z,84.97
2023-02-03T13:36:18.455Z,85.20
2023-02-03T13:38:55.699Z,86.22
2023-02-03T13:41:43.459Z,85.71
2023-02-03T13:44:16.942Z,83.70
2023-02-03T13:46:47.745Z,82.62
2023-02-03T13:49:27.512Z,83.33
2023-02-03T13:51:54.812Z,82.19
2023-02-03T13:54:43.348Z,82.03
2023-02-03T13:57:22.502Z,82.66
2023-02-03T13:59:49.901Z,82.71
2023-02-03T14:02:19.646Z,83.92
2023-02-03T14:04:46.625Z,82.79
2023-02-03T14:07:38.819Z,81.67
2023-02-03T14:10:14.858Z,80.86
2023-02-03T14:12:50.722Z,80.87
2023-02-03T14:15:28.465Z,82.51
2023-02-03T14:17:56.330Z,81.59
2023-02-03T14:20:26.066Z,81.63
2023-02-03T14:23:06.186Z,79.75
2023-02-03T14:25:42.446Z,79.90
2023-02-03T14:28:12.284Z,78.16
2023-02-03T14:31:05.558Z,79.08
2023-02-03T14:33:46.303Z,79.04
2023-02-03T14:36:28.364Z,79.23
2023-02-03T14:38:55.837Z,75.22
2023-02-03T14:41:49.111Z,75.02
2023-02-03T14:44:34.558Z,76.84
2023-02-03T14:47:28.033Z,74.39
2023-02-03T14:50:17.203Z,74.77
2023-02-03T14:53:20.605Z,74.59
2023-02-03T14:55:57.077Z,74.96
2023-02-03T14:58:34.206Z,74.26
2023-02-03T15:01:04.748Z,74.37
2023-02-03T15:03:31.880Z,72.93
2023-02-03T15:06:03.352Z,74.79
2023-02-03T15:08:35.614Z,73.83
2023-02-03T15:11:25.264Z,72.77
2023-02-03T15:13:52.123Z,71.98
2023-02-03T15:16:20.681Z,72.79
2023-02-03T15:18:54.071Z,70.91
2023-02-03T15:21:20.796Z,72.38
2023-02-03T15:23:48.506Z,70.73
2023-02-03T15:26:24.443Z,71.95
2023-02-03T15:28:59.430Z,70.95
2023-02-03T15:31:37.044Z,72.28
2023-02-03T15:34:07.212Z,72.11
2023-02-03T15:36:43.479Z,72.38
2023-02-03T15:39:34.127Z,72.96
2023-02-03T15:42:01.392Z,72.36
2023-02-03T15:44:29.491Z,71.88
2023-02-03T15:46:57.073Z,72.31
2023-02-03T15:49:28.637Z,72.73
2023-02-03T15:52:00.578Z,72.62
2023-02-03T15:54:45.840Z,73.97
2023-02-03T15:57:21.982Z,72.80
2023-02-03T16:00:00.602Z,71.94
2023-02-03T16:02:34.132Z,72.07
2023-02-03T16:05:26.525Z,73.17
2023-02-03T16:07:53.240Z,72.25
2023-02-03T16:10:32.306Z,72.96
2023-02-03T16:13:21.351Z,72.74
2023-02-03T16:16:06.069Z,72.53
2023-02-03T16:18:36.913Z,73.27
2023-02-03T16:21:06.703Z,74.30
2023-02-03T16:23:33.477Z,74.88
2023-02-03T16:26:06.199Z,73.49
2023-02-03T16:28:51.826Z,73.84
2023-02-03T16:31:38.856Z,74.26
2023-02-03T16:34:38.222Z,74.66
2023-02-03T16:37:39.677Z,74.03
2023-02-03T16:40:25.062Z,74.98
2023-02-03T16:43:10.493Z,73.51
2023-02-03T16:45:55.799Z,74.78
2023-02-03T16:48:41.259Z,75.68
2023-02-03T16:51:16.024Z,74.67
2023-02-03T16:53:45.282Z,73.09
2023-02-03T16:56:13.691Z,73.18
2023-02-03T16:58:40.797Z,72.80
2023-02-03T17:01:08.134Z,73.47
2023-02-03T17:03:36.162Z,72.03
2023-02-03T17:06:06.576Z,72.33
2023-02-03T17:08:33.568Z,72.04
2023-02-03T17:11:07.128Z,72.25
2023-02-03T17:13:34.270Z,71.68
2023-02-03T17:16:01.066Z,71.96
2023-02-03T17:18:27.783Z,72.13
2023-02-03T17:21:04.867Z,70.94
2023-02-03T17:23:31.875Z,71.80
2023-02-03T17:25:58.524Z,71.52
2023-02-03T17:28:25.934Z,71.21
2023-02-03T17:30:57.177Z,70.74
2023-02-03T17:33:23.944Z,71.63
2023-02-03T17:36:15.112Z,71.57
2023-02-03T17:54:49.769Z,72.64
2023-02-03T17:57:16.379Z,73.01
2023-02-03T17:59:46.892Z,72.24
2023-02-03T18:02:13.625Z,71.54
2023-02-03T18:04:40.326Z,70.30
2023-02-03T18:07:06.954Z,71.53
2023-02-03T18:09:33.747Z,71.78
2023-02-03T18:12:00.562Z,71.35
2023-02-03T18:14:27.363Z,71.95
2023-02-03T18:16:54.034Z,71.94
2023-02-03T18:19:21.482Z,71.77
2023-02-03T18:21:48.188Z,72.57
2023-02-03T18:24:17.037Z,72.71
2023-02-03T18:26:49.248Z,71.40
2023-02-03T18:29:16.127Z,71.64
2023-02-03T18:31:44.352Z,73.26
2023-02-03T18:34:11.093Z,72.21
2023-02-03T18:36:37.756Z,72.03
2023-02-03T18:39:04.656Z,73.43
2023-02-03T18:41:31.368Z,71.51
2023-02-03T18:43:57.988Z,72.88
2023-02-03T18:46:27.283Z,72.10
2023-02-03T18:48:54.247Z,72.42
2023-02-03T18:51:21.812Z,71.72
2023-02-03T18:53:49.389Z,73.01
2023-02-03T18:56:19.560Z,73.61
2023-02-03T18:58:46.199Z,72.87
2023-02-03T19:01:39.689Z,73.14
2023-02-03T19:04:09.499Z,72.84
2023-02-03T19:06:36.438Z,72.92
2023-02-03T19:09:04.270Z,73.86
2023-02-03T19:11:31.301Z,73.28
2023-02-03T19:13:57.948Z,74.65
2023-02-03T19:16:24.638Z,74.03
2023-02-03T19:18:51.418Z,74.85
2023-02-03T19:21:18.364Z,74.55
2023-02-03T19:23:45.074Z,74.55
2023-02-03T19:26:12.248Z,75.60
2023-02-03T19:28:39.854Z,77.09
2023-02-03T19:31:13.729Z,75.67
2023-02-03T19:33:40.804Z,75.25
2023-02-03T19:36:08.716Z,76.12
2023-02-03T19:38:41.530Z,74.96
2023-02-03T19:41:09.610Z,75.33
2023-02-03T19:43:36.310Z,76.73
2023-02-03T19:46:04.863Z,77.57
2023-02-03T19:48:31.587Z,76.73
2023-02-03T19:50:58.222Z,76.88
2023-02-03T19:53:25.019Z,77.57
2023-02-03T19:55:54.852Z,77.30
2023-02-03T19:58:21.660Z,78.90
2023-02-03T20:00:48.354Z,80.64
2023-02-03T20:03:15.187Z,82.63
2023-02-03T20:05:41.948Z,82.38
2023-02-03T20:08:13.021Z,82.16
2023-02-03T20:10:40.856Z,81.92
2023-02-03T20:13:07.598Z,81.89
2023-02-03T20:15:34.262Z,81.13
2023-02-03T20:18:00.925Z,80.63
2023-02-03T20:20:28.191Z,80.55
2023-02-03T20:22:55.024Z,80.37
2023-02-03T20:25:22.756Z,80.34
2023-02-03T20:27:49.519Z,82.86
2023-02-03T20:30:16.238Z,82.53
2023-02-03T20:32:42.944Z,82.66
2023-02-03T20:35:12.810Z,82.74
2023-02-03T20:37:39.711Z,83.70
2023-02-03T20:40:16.002Z,84.72
2023-02-03T20:42:43.077Z,84.22
2023-02-03T20:45:13.732Z,86.19
2023-02-03T20:47:40.617Z,85.25
2023-02-03T20:50:18.812Z,85.81
2023-02-03T20:52:46.756Z,85.90
2023-02-03T20:55:18.541Z,85.43
2023-02-03T20:57:48.476Z,86.37
2023-02-03T21:00:26.684Z,86.90
2023-02-03T21:03:12.265Z,86.65
2023-02-03T21:05:42.142Z,87.01
2023-02-03T21:08:13.824Z,86.19
2023-02-03T21:10:41.094Z,86.54
2023-02-03T21:13:27.987Z,87.71
2023-02-03T21:16:00.276Z,87.64
2023-02-03T21:18:33.128Z,89.54
2023-02-03T21:21:00.518Z,88.74
2023-02-03T21:23:43.278Z,92.41
2023-02-03T21:26:19.494Z,91.28
2023-02-03T21:28:50.607Z,92.07
2023-02-03T21:31:35.535Z,89.82
2023-02-03T21:34:04.100Z,89.29
2023-02-03T21:36:34.607Z,90.62
2023-02-03T21:39:01.734Z,88.86
2023-02-03T21:41:35.320Z,88.63
2023-02-03T21:44:02.081Z,86.61
2023-02-03T21:46:35.845Z,85.28
2023-02-03T21:49:03.867Z,83.92
2023-02-03T21:51:33.987Z,81.62
2023-02-03T21:54:02.296Z,80.32
2023-02-03T21:56:36.506Z,80.77
2023-02-03T21:59:05.018Z,80.84
2023-02-03T22:01:37.002Z,80.39
2023-02-03T22:04:06.731Z,79.64
2023-02-03T22:06:47.028Z,79.56
2023-02-03T22:09:16.142Z,77.64
2023-02-03T22:11:42.933Z,78.97
2023-02-03T22:14:09.789Z,79.74
2023-02-03T22:16:36.748Z,79.88
2023-02-03T22:19:03.470Z,80.79
2023-02-03T22:21:30.101Z,81.48
2023-02-03T22:23:57.326Z,82.65
2023-02-03T22:26:24.121Z,83.94
2023-02-03T22:28:50.876Z,82.65
2023-02-03T22:31:17.922Z,81.10
2023-02-03T22:33:44.754Z,81.40
2023-02-03T22:36:14.739Z,80.32
2023-02-03T22:38:42.491Z,79.64
2023-02-03T22:41:13.135Z,80.23
2023-02-03T22:43:40.514Z,79.89
2023-02-03T22:46:07.532Z,79.85
2023-02-03T22:48:34.802Z,80.25
2023-02-03T22:51:05.084Z,79.89
2023-02-03T22:53:32.203Z,80.57
2023-02-03T22:55:58.782Z,79.60
2023-02-03T22:58:25.566Z,80.38
2023-02-03T23:00:52.221Z,79.19
2023-02-03T23:03:18.972Z,80.46
2023-02-03T23:05:45.682Z,79.47
2023-02-03T23:08:12.437Z,78.88
2023-02-03T23:10:39.060Z,81.41
2023-02-03T23:13:05.765Z,81.87
2023-02-03T23:15:32.470Z,82.20
2023-02-03T23:17:59.257Z,82.96
2023-02-03T23:20:25.882Z,82.54
2023-02-03T23:22:52.608Z,83.33
2023-02-03T23:25:19.448Z,82.95
2023-02-03T23:27:46.192Z,82.83
2023-02-03T23:30:16.131Z,81.83
2023-02-03T23:32:42.859Z,81.01
2023-02-03T23:35:31.971Z,81.02
2023-02-03T23:37:58.594Z,80.96
2023-02-03T23:40:25.249Z,81.94
2023-02-03T23:42:51.869Z,81.45
2023-02-03T23:45:18.628Z,81.75
2023-02-03T23:47:46.249Z,81.90
2023-02-03T23:50:15.410Z,83.19
2023-02-03T23:52:42.218Z,83.01
2023-02-03T23:55:11.448Z,83.08
2023-02-03T23:57:38.176Z,82.51
